Aérodrome :
LOGIN :

S'inscrire | Disclaimer

   EN    FR    IT 

 










Légende :    VFR   VFR Marginal   IFR   IFR Intensif   IFR Très Intensif
Visi : 
Plafond : 
>= 8 km
>= 3000ft
5 à 8 km
1000 à 3000 ft
1500m à 5 km
500 à 1000 ft
800 à 1500m
200 à 500 ft
< 800m
< 200 ft
Symboles :   Orages  Brouillard  Fortes neiges  Fortes précipitations  Vent > 20 kt
SIGMETs :   Divers  Orages  Givrage  Turbulence  Onde Orograph.  Cendres Volcan.







- Altitude de l'aérodrome : 194 ft
- Code IATA : ANE
- Voir les cartes d'approche


LFJR - Angers Marcé

DERNIER METAR :
  • 171700Z AUTO 24010KT 6000 -RA BKN018 BKN027 BKN034 21/19 Q1017 TEMPO 3000 -DZRA BKN007 OVC013

METARs EXPIRÉS :
  • 171630Z AUTO 23014KT 200V260 9999 BKN020 BKN026 BKN034 23/19 Q1017 TEMPO 3000 -DZRA BKN007 OVC013
  • 171600Z AUTO 26013KT 9999 FEW019/// SCT024/// BKN037/// ///TCU 22/19 Q1017 TEMPO 3000 -DZRA BKN007 OVC013
  • 171530Z AUTO 23011KT 9999 FEW044/// SCT052/// OVC092/// ///TCU 24/19 Q1017 TEMPO 3000 -DZRA BKN007 OVC013
  • 171500Z AUTO 23011KT 9999 FEW029 BKN054 BKN100 23/20 Q1017 TEMPO 3000 -DZRA BKN007 OVC013
  • 171430Z AUTO 22012KT 9999 SCT025 BKN035 BKN060 25/20 Q1017 TEMPO 3000 -DZRA BKN007 OVC013

TAF TAF LFJR
Valide du 17 à 12h jusqu'au 17 à 21h UTC


171100Z 1712/1721 21010KT 9999 BKN013 OVC020
TEMPO 1712/1721 3000 -DZRA BKN007 OVC013
Pas de NOTAMs connus pour ce terrain.



MET'MAP, la Météo Aéronautique d'un coup d'oeil ! - Copyright ORBIFLY Décembre 2007 - Disclaimer

ORBIFLY MET'MAP TEAM :

Programmation & Développement : Alexandra Zaïnal
Conception & Développement : Baudouin d'Aumeries
Co-Programmation & Développement : Marc-Olivier Méhu
Soutien technique & logistique : Manuel Goepfert

Contact : metmap@orbifly.com




SOURCES & CREDITS :

   NOAA